createdAt,value
2022-12-17T05:30:38.783Z,1008.82
2022-12-17T05:31:38.840Z,1008.79
2022-12-17T05:32:38.717Z,1008.86
2022-12-17T05:33:39.205Z,1008.85
2022-12-17T05:34:38.741Z,1008.89
2022-12-17T05:35:38.677Z,1008.85
2022-12-17T05:36:38.675Z,1008.88
2022-12-17T05:37:38.688Z,1008.88
2022-12-17T05:38:38.688Z,1008.92
2022-12-17T05:39:38.650Z,1008.87
2022-12-17T05:40:38.641Z,1008.89
2022-12-17T05:41:38.608Z,1008.85
2022-12-17T05:42:38.606Z,1008.93
2022-12-17T05:43:38.917Z,1008.95
2022-12-17T05:44:38.604Z,1008.96
2022-12-17T05:45:38.579Z,1008.95
2022-12-17T05:46:38.646Z,1008.98
2022-12-17T05:47:38.557Z,1009.00
2022-12-17T05:48:38.544Z,1009.00
2022-12-17T05:49:38.566Z,1009.04
2022-12-17T05:50:38.533Z,1008.98
2022-12-17T05:51:39.176Z,1009.04
2022-12-17T05:52:38.535Z,1008.99
2022-12-17T05:53:38.791Z,1008.97
2022-12-17T05:54:38.517Z,1008.98
2022-12-17T05:55:38.489Z,1008.97
2022-12-17T05:56:38.481Z,1008.99
2022-12-17T05:57:38.447Z,1008.91
2022-12-17T05:58:38.440Z,1008.96
2022-12-17T05:59:38.431Z,1008.97
2022-12-17T06:00:38.443Z,1008.95
2022-12-17T06:01:38.487Z,1008.97
2022-12-17T06:02:38.568Z,1009.04
2022-12-17T06:03:38.850Z,1008.97
2022-12-17T06:04:38.378Z,1008.97
2022-12-17T06:05:38.403Z,1009.00
2022-12-17T06:06:38.400Z,1009.01
2022-12-17T06:07:38.365Z,1009.01
2022-12-17T06:08:38.468Z,1009.05
2022-12-17T06:09:38.353Z,1009.07
2022-12-17T06:10:38.311Z,1009.14
2022-12-17T06:11:38.347Z,1009.14
2022-12-17T06:12:38.322Z,1009.17
2022-12-17T06:13:38.490Z,1009.18
2022-12-17T06:14:38.299Z,1009.18
2022-12-17T06:15:38.327Z,1009.15
2022-12-17T06:16:38.300Z,1009.13
2022-12-17T06:17:38.241Z,1009.15
2022-12-17T06:18:38.250Z,1009.09
2022-12-17T06:19:38.216Z,1009.09
2022-12-17T06:20:38.257Z,1009.16
2022-12-17T06:21:38.216Z,1009.15
2022-12-17T06:22:38.197Z,1009.19
2022-12-17T06:23:38.528Z,1009.23
2022-12-17T06:24:41.379Z,1009.25
2022-12-17T06:25:39.157Z,1009.28
2022-12-17T06:26:38.147Z,1009.28
2022-12-17T06:27:38.159Z,1009.29
2022-12-17T06:28:38.126Z,1009.27
2022-12-17T06:29:38.145Z,1009.32
2022-12-17T06:30:38.107Z,1009.31
2022-12-17T06:31:38.162Z,1009.29
2022-12-17T06:32:38.086Z,1009.29
2022-12-17T06:33:38.533Z,1009.34
2022-12-17T06:34:38.089Z,1009.30
2022-12-17T06:35:38.062Z,1009.38
2022-12-17T06:36:38.053Z,1009.31
2022-12-17T06:37:38.054Z,1009.40
2022-12-17T06:38:38.020Z,1009.46
2022-12-17T06:39:38.062Z,1009.45
2022-12-17T06:40:38.004Z,1009.44
2022-12-17T06:41:37.992Z,1009.45
2022-12-17T06:42:38.000Z,1009.43
2022-12-17T06:43:38.497Z,1009.48
2022-12-17T06:44:37.964Z,1009.43
2022-12-17T06:45:37.966Z,1009.49
2022-12-17T06:46:38.017Z,1009.46
2022-12-17T06:47:37.970Z,1009.42
2022-12-17T06:48:37.932Z,1009.40
2022-12-17T06:49:37.910Z,1009.46
2022-12-17T06:50:38.027Z,1009.40
2022-12-17T06:51:37.907Z,1009.45
2022-12-17T06:52:37.880Z,1009.43
2022-12-17T06:53:38.346Z,1009.45
2022-12-17T06:54:37.860Z,1009.41
2022-12-17T06:55:37.848Z,1009.45
2022-12-17T06:56:37.840Z,1009.44
2022-12-17T06:57:41.228Z,1009.45
2022-12-17T06:58:37.838Z,1009.45
2022-12-17T06:59:37.833Z,1009.50
2022-12-17T07:00:37.861Z,1009.54
2022-12-17T07:01:37.884Z,1009.55
2022-12-17T07:02:37.914Z,1009.48
2022-12-17T07:03:38.248Z,1009.50
2022-12-17T07:04:37.751Z,1009.52
2022-12-17T07:05:37.781Z,1009.51
2022-12-17T07:06:37.749Z,1009.47
2022-12-17T07:07:37.725Z,1009.52
2022-12-17T07:08:37.738Z,1009.52
2022-12-17T07:09:37.696Z,1009.56
2022-12-17T07:10:37.682Z,1009.54
2022-12-17T07:11:37.734Z,1009.57
2022-12-17T07:12:37.673Z,1009.54
2022-12-17T07:13:37.971Z,1009.60
2022-12-17T07:14:37.653Z,1009.63
2022-12-17T07:15:37.637Z,1009.62
2022-12-17T07:16:37.683Z,1009.61
2022-12-17T07:17:37.634Z,1009.62
2022-12-17T07:18:37.608Z,1009.66
2022-12-17T07:19:37.598Z,1009.59
2022-12-17T07:20:37.596Z,1009.65
2022-12-17T07:21:37.577Z,1009.65
2022-12-17T07:22:37.617Z,1009.63
2022-12-17T07:23:37.963Z,1009.63
2022-12-17T07:24:37.546Z,1009.67
2022-12-17T07:25:40.531Z,1009.64
2022-12-17T07:26:38.550Z,1009.66
2022-12-17T07:27:37.522Z,1009.70
2022-12-17T07:28:37.529Z,1009.65
2022-12-17T07:29:37.492Z,1009.66
2022-12-17T07:30:37.499Z,1009.72
2022-12-17T07:31:37.545Z,1009.75
2022-12-17T07:32:37.470Z,1009.74
2022-12-17T07:33:37.868Z,1009.72
2022-12-17T07:34:37.469Z,1009.76
2022-12-17T07:35:37.435Z,1009.73
2022-12-17T07:36:37.425Z,1009.73
2022-12-17T07:37:37.423Z,1009.77
2022-12-17T07:38:37.416Z,1009.82
2022-12-17T07:39:37.403Z,1009.78
2022-12-17T07:40:37.393Z,1009.77
2022-12-17T07:41:37.375Z,1009.80
2022-12-17T07:42:37.378Z,1009.78
2022-12-17T07:43:37.727Z,1009.85
2022-12-17T07:44:37.335Z,1009.86
2022-12-17T07:45:37.497Z,1009.88
2022-12-17T07:46:37.313Z,1009.86
2022-12-17T07:47:37.307Z,1009.86
2022-12-17T07:48:37.290Z,1009.85
2022-12-17T07:49:37.284Z,1009.94
2022-12-17T07:50:37.279Z,1009.92
2022-12-17T07:51:37.318Z,1010.07
2022-12-17T07:52:37.252Z,1010.06
2022-12-17T07:53:37.546Z,1010.13
2022-12-17T07:54:37.249Z,1010.08
2022-12-17T07:55:37.225Z,1010.07
2022-12-17T07:56:37.208Z,1010.07
2022-12-17T07:57:37.250Z,1010.09
2022-12-17T07:58:37.232Z,1010.10
2022-12-17T07:59:37.184Z,1010.10
2022-12-17T08:00:37.169Z,1010.14
2022-12-17T08:01:37.298Z,1010.19
2022-12-17T08:02:37.356Z,1010.17
2022-12-17T08:03:37.503Z,1010.18
2022-12-17T08:04:37.173Z,1010.26
2022-12-17T08:05:37.128Z,1010.28
2022-12-17T08:06:37.106Z,1010.26
2022-12-17T08:07:37.112Z,1010.24
2022-12-17T08:08:37.131Z,1010.23
2022-12-17T08:09:37.112Z,1010.28
2022-12-17T08:10:37.083Z,1010.25
2022-12-17T08:11:37.059Z,1010.26
2022-12-17T08:12:37.042Z,1010.26
2022-12-17T08:13:37.295Z,1010.35
2022-12-17T08:14:37.053Z,1010.36
2022-12-17T08:15:37.013Z,1010.37
2022-12-17T08:16:37.086Z,1010.40
2022-12-17T08:17:36.997Z,1010.40
2022-12-17T08:18:36.980Z,1010.43
2022-12-17T08:19:36.983Z,1010.43
2022-12-17T08:20:36.986Z,1010.44
2022-12-17T08:21:36.958Z,1010.44
2022-12-17T08:22:36.942Z,1010.40
2022-12-17T08:23:37.376Z,1010.49
2022-12-17T08:24:36.916Z,1010.48
2022-12-17T08:25:36.912Z,1010.45
2022-12-17T08:26:36.944Z,1010.43
2022-12-17T08:27:36.898Z,1010.40
2022-12-17T08:28:52.374Z,1010.40
2022-12-17T08:29:37.866Z,1010.46
2022-12-17T08:30:36.942Z,1010.46
2022-12-17T08:31:36.853Z,1010.46
2022-12-17T08:32:36.851Z,1010.45
2022-12-17T08:33:37.129Z,1010.52
2022-12-17T08:34:36.815Z,1010.48
2022-12-17T08:35:36.832Z,1010.54
2022-12-17T08:36:36.790Z,1010.51
2022-12-17T08:37:36.806Z,1010.51
2022-12-17T08:38:36.779Z,1010.54
2022-12-17T08:39:36.762Z,1010.48
2022-12-17T08:40:36.757Z,1010.49
2022-12-17T08:41:36.744Z,1010.46
2022-12-17T08:42:36.767Z,1010.49
2022-12-17T08:43:37.189Z,1010.52
2022-12-17T08:44:36.719Z,1010.52
2022-12-17T08:45:36.830Z,1010.51
2022-12-17T08:46:36.698Z,1010.48
2022-12-17T08:47:36.684Z,1010.52
2022-12-17T08:48:36.683Z,1010.51
2022-12-17T08:49:36.671Z,1010.52
2022-12-17T08:50:36.662Z,1010.55
2022-12-17T08:51:36.640Z,1010.57
2022-12-17T08:52:36.630Z,1010.57
2022-12-17T08:53:37.163Z,1010.52
2022-12-17T08:54:36.618Z,1010.56
2022-12-17T08:55:36.600Z,1010.54
2022-12-17T08:56:36.596Z,1010.50
2022-12-17T08:57:36.574Z,1010.53
2022-12-17T08:58:36.581Z,1010.60
2022-12-17T08:59:36.580Z,1010.51
2022-12-17T09:00:36.545Z,1010.60
2022-12-17T09:01:36.690Z,1010.67
2022-12-17T09:02:36.635Z,1010.63
2022-12-17T09:03:37.054Z,1010.63
2022-12-17T09:04:36.525Z,1010.67
2022-12-17T09:05:36.492Z,1010.66
2022-12-17T09:06:39.264Z,1010.66
2022-12-17T09:07:36.484Z,1010.64
2022-12-17T09:08:36.460Z,1010.63
2022-12-17T09:09:36.480Z,1010.62
2022-12-17T09:10:36.449Z,1010.64
2022-12-17T09:11:36.433Z,1010.64
2022-12-17T09:12:36.419Z,1010.66
2022-12-17T09:13:36.802Z,1010.66
2022-12-17T09:14:36.419Z,1010.66
2022-12-17T09:15:36.413Z,1010.70
2022-12-17T09:16:36.443Z,1010.75
2022-12-17T09:17:36.372Z,1010.74
2022-12-17T09:18:36.366Z,1010.74
2022-12-17T09:19:36.352Z,1010.72
2022-12-17T09:20:36.349Z,1010.76
2022-12-17T09:21:36.329Z,1010.74
2022-12-17T09:22:36.315Z,1010.73
2022-12-17T09:23:36.717Z,1010.74
2022-12-17T09:24:36.308Z,1010.81
2022-12-17T09:25:36.294Z,1010.89
2022-12-17T09:26:36.302Z,1010.91
2022-12-17T09:27:36.268Z,1010.85
2022-12-17T09:28:36.272Z,1010.87
2022-12-17T09:29:36.248Z,1010.80
2022-12-17T09:30:36.388Z,1010.78
2022-12-17T09:31:37.707Z,1010.82
2022-12-17T09:32:36.230Z,1010.78
2022-12-17T09:33:36.738Z,1010.76
2022-12-17T09:34:36.188Z,1010.75
2022-12-17T09:35:36.184Z,1010.78
2022-12-17T09:36:36.185Z,1010.74
2022-12-17T09:37:36.182Z,1010.77
2022-12-17T09:38:36.152Z,1010.76
2022-12-17T09:39:36.140Z,1010.77
2022-12-17T09:40:36.141Z,1010.79
2022-12-17T09:41:36.121Z,1010.85
2022-12-17T09:42:36.115Z,1010.86
2022-12-17T09:43:36.561Z,1010.81
2022-12-17T09:44:36.123Z,1010.82
2022-12-17T09:45:36.097Z,1010.87
2022-12-17T09:46:36.223Z,1010.89
2022-12-17T09:47:36.059Z,1010.92
2022-12-17T09:48:36.071Z,1010.92
2022-12-17T09:49:36.056Z,1010.90
2022-12-17T09:50:36.043Z,1010.94
2022-12-17T09:51:36.038Z,1010.92
2022-12-17T09:52:36.006Z,1010.89
2022-12-17T09:53:36.373Z,1010.91
2022-12-17T09:54:35.988Z,1010.85
2022-12-17T09:55:35.994Z,1010.83
2022-12-17T09:56:35.956Z,1010.89
2022-12-17T09:57:35.957Z,1010.85
2022-12-17T09:58:35.977Z,1010.91
2022-12-17T09:59:35.938Z,1010.92
2022-12-17T10:00:35.923Z,1010.92
2022-12-17T10:01:36.087Z,1010.85
2022-12-17T10:02:36.221Z,1010.86
2022-12-17T10:03:36.559Z,1010.88
2022-12-17T10:04:35.905Z,1010.88
2022-12-17T10:05:35.871Z,1010.84
2022-12-17T10:06:35.857Z,1010.88
2022-12-17T10:07:35.849Z,1010.85
2022-12-17T10:08:35.864Z,1010.80
2022-12-17T10:09:35.829Z,1010.85
2022-12-17T10:10:35.824Z,1010.88
2022-12-17T10:11:35.807Z,1010.82
2022-12-17T10:12:35.812Z,1010.79
2022-12-17T10:13:36.261Z,1010.93
2022-12-17T10:14:35.772Z,1010.94
2022-12-17T10:15:35.832Z,1010.90
2022-12-17T10:16:35.762Z,1010.94
2022-12-17T10:17:35.742Z,1011.02
2022-12-17T10:18:35.757Z,1010.98
2022-12-17T10:19:35.739Z,1010.97
2022-12-17T10:20:35.713Z,1011.06
2022-12-17T10:21:35.698Z,1011.01
2022-12-17T10:22:38.924Z,1010.92
2022-12-17T10:23:36.121Z,1010.87
2022-12-17T10:24:35.692Z,1010.85
2022-12-17T10:25:35.684Z,1010.86
2022-12-17T10:26:35.650Z,1010.84
2022-12-17T10:27:35.647Z,1010.83
2022-12-17T10:28:35.637Z,1010.83
2022-12-17T10:29:35.643Z,1010.84
2022-12-17T10:30:35.608Z,1010.84
2022-12-17T10:31:35.668Z,1010.87
2022-12-17T10:32:35.594Z,1010.86
2022-12-17T10:33:35.955Z,1010.88
2022-12-17T10:34:35.589Z,1010.86
2022-12-17T10:35:35.624Z,1010.89
2022-12-17T10:36:35.551Z,1010.94
2022-12-17T10:37:35.566Z,1010.94
2022-12-17T10:38:35.532Z,1010.98
2022-12-17T10:39:35.520Z,1011.04
2022-12-17T10:40:35.508Z,1010.95
2022-12-17T10:41:35.543Z,1010.98
2022-12-17T10:42:35.502Z,1010.96
2022-12-17T10:43:35.916Z,1010.97
2022-12-17T10:44:35.475Z,1010.98
2022-12-17T10:45:35.454Z,1010.99
2022-12-17T10:46:35.530Z,1011.01
2022-12-17T10:47:35.432Z,1011.05
2022-12-17T10:48:35.446Z,1011.00
2022-12-17T10:49:35.409Z,1011.07
2022-12-17T10:50:35.426Z,1011.04
2022-12-17T10:51:35.392Z,1011.02
2022-12-17T10:52:35.385Z,1011.02
2022-12-17T10:53:35.875Z,1010.99
2022-12-17T10:54:35.376Z,1011.01
2022-12-17T10:55:35.355Z,1010.99
2022-12-17T10:56:35.338Z,1011.02
2022-12-17T10:57:35.373Z,1011.04
2022-12-17T10:58:35.341Z,1011.09
2022-12-17T10:59:35.313Z,1011.03
2022-12-17T11:00:35.296Z,1011.05
2022-12-17T11:01:35.401Z,1011.04
2022-12-17T11:02:35.549Z,1011.10
2022-12-17T11:03:35.600Z,1011.10
2022-12-17T11:04:35.325Z,1011.08
2022-12-17T11:05:35.252Z,1011.14
2022-12-17T11:06:40.511Z,1011.11
2022-12-17T11:07:36.225Z,1011.13
2022-12-17T11:08:35.811Z,1011.17
2022-12-17T11:09:35.225Z,1011.18
2022-12-17T11:10:35.207Z,1011.25
2022-12-17T11:11:35.230Z,1011.21
2022-12-17T11:12:35.174Z,1011.25
2022-12-17T11:13:35.528Z,1011.21
2022-12-17T11:14:35.155Z,1011.27
2022-12-17T11:15:35.286Z,1011.24
2022-12-17T11:16:35.217Z,1011.22
2022-12-17T11:17:35.233Z,1011.27
2022-12-17T11:18:35.110Z,1011.22
2022-12-17T11:19:35.107Z,1011.25
2022-12-17T11:20:35.093Z,1011.26
2022-12-17T11:21:35.100Z,1011.21
2022-12-17T11:22:35.089Z,1011.26
2022-12-17T11:23:35.527Z,1011.23
2022-12-17T11:24:35.051Z,1011.24
2022-12-17T11:25:35.061Z,1011.21
2022-12-17T11:26:35.032Z,1011.23
2022-12-17T11:27:35.038Z,1011.21
2022-12-17T11:28:35.013Z,1011.15
2022-12-17T11:29:35.042Z,1011.20
2022-12-17T11:30:34.984Z,1011.14
2022-12-17T11:31:35.032Z,1011.13
2022-12-17T11:32:34.971Z,1011.09
2022-12-17T11:33:35.299Z,1011.15
2022-12-17T11:34:34.946Z,1011.13
2022-12-17T11:35:34.993Z,1011.17
2022-12-17T11:36:38.668Z,1011.16
2022-12-17T11:37:34.910Z,1011.14
2022-12-17T11:38:35.361Z,1011.17
2022-12-17T11:39:34.890Z,1011.16
2022-12-17T11:40:34.904Z,1011.16
2022-12-17T11:41:34.873Z,1011.18
2022-12-17T11:42:34.867Z,1011.19
2022-12-17T11:43:34.880Z,1011.19
2022-12-17T11:44:34.845Z,1011.21
2022-12-17T11:45:34.848Z,1011.18
2022-12-17T11:46:34.988Z,1011.18
2022-12-17T11:47:34.817Z,1011.21
2022-12-17T11:48:35.295Z,1011.19
2022-12-17T11:49:34.799Z,1011.21
2022-12-17T11:50:34.818Z,1011.20
2022-12-17T11:51:34.769Z,1011.19
2022-12-17T11:52:34.753Z,1011.18
2022-12-17T11:53:34.747Z,1011.20
2022-12-17T11:54:34.773Z,1011.23
2022-12-17T11:55:34.725Z,1011.18
2022-12-17T11:56:34.719Z,1011.16
2022-12-17T11:57:34.732Z,1011.17
2022-12-17T11:58:35.191Z,1011.11
2022-12-17T11:59:34.719Z,1011.13
2022-12-17T12:00:34.694Z,1011.12
2022-12-17T12:01:34.721Z,1011.10
2022-12-17T12:02:34.677Z,1011.15
2022-12-17T12:03:34.751Z,1011.16
2022-12-17T12:04:34.655Z,1011.12
2022-12-17T12:05:34.667Z,1011.09
2022-12-17T12:06:34.634Z,1011.08
2022-12-17T12:07:34.618Z,1011.07
2022-12-17T12:08:35.063Z,1011.10
2022-12-17T12:09:34.582Z,1011.07
2022-12-17T12:10:34.585Z,1011.15
2022-12-17T12:11:34.575Z,1011.09
2022-12-17T12:12:34.588Z,1011.08
2022-12-17T12:13:34.541Z,1011.08
2022-12-17T12:14:34.532Z,1011.08
2022-12-17T12:15:34.519Z,1011.09
2022-12-17T12:16:38.046Z,1011.08
2022-12-17T12:17:35.512Z,1011.08
2022-12-17T12:18:34.859Z,1011.08
2022-12-17T12:19:34.495Z,1011.05
2022-12-17T12:20:34.481Z,1011.10
2022-12-17T12:21:34.474Z,1011.06
2022-12-17T12:22:34.467Z,1011.09
2022-12-17T12:23:34.441Z,1011.05
2022-12-17T12:24:34.426Z,1011.07
2022-12-17T12:25:34.409Z,1011.10
2022-12-17T12:26:34.423Z,1011.08
2022-12-17T12:27:37.822Z,1011.06
2022-12-17T12:28:35.752Z,1011.09
2022-12-17T12:29:34.391Z,1011.10
2022-12-17T12:30:34.363Z,1011.10
2022-12-17T12:31:34.392Z,1011.10
2022-12-17T12:32:34.341Z,1011.07
2022-12-17T12:33:34.368Z,1011.12
2022-12-17T12:34:34.342Z,1011.15
2022-12-17T12:35:34.326Z,1011.14
2022-12-17T12:36:34.297Z,1011.13
2022-12-17T12:37:34.293Z,1011.16
2022-12-17T12:38:34.565Z,1011.17
2022-12-17T12:39:34.311Z,1011.14
2022-12-17T12:40:34.264Z,1011.14
2022-12-17T12:41:34.245Z,1011.12
2022-12-17T12:42:34.329Z,1011.13
2022-12-17T12:43:34.224Z,1011.10
2022-12-17T12:44:34.246Z,1011.04
2022-12-17T12:45:34.255Z,1011.10
2022-12-17T12:46:34.237Z,1011.06
2022-12-17T12:47:34.189Z,1011.06
2022-12-17T12:48:34.434Z,1011.08
2022-12-17T12:49:34.173Z,1011.10
2022-12-17T12:50:34.156Z,1011.06
2022-12-17T12:51:34.564Z,1011.11
2022-12-17T12:52:34.159Z,1011.11
2022-12-17T12:53:35.062Z,1011.08
2022-12-17T12:54:34.167Z,1011.06
2022-12-17T12:55:34.100Z,1011.06
2022-12-17T12:56:34.093Z,1010.99
2022-12-17T12:57:34.220Z,1011.00
2022-12-17T12:58:34.303Z,1010.98
2022-12-17T12:59:34.089Z,1010.92
2022-12-17T13:00:34.127Z,1010.98
2022-12-17T13:01:34.227Z,1010.93
2022-12-17T13:02:34.212Z,1010.95
2022-12-17T13:03:39.392Z,1010.95
2022-12-17T13:04:35.012Z,1010.89
2022-12-17T13:05:34.004Z,1010.93
2022-12-17T13:06:34.023Z,1010.95
2022-12-17T13:07:33.977Z,1010.93
2022-12-17T13:08:34.369Z,1010.89
2022-12-17T13:09:35.244Z,1010.91
2022-12-17T13:10:33.952Z,1010.90
2022-12-17T13:11:33.958Z,1010.89
2022-12-17T13:12:33.949Z,1010.91
2022-12-17T13:13:33.914Z,1010.92
2022-12-17T13:14:33.940Z,1010.89
2022-12-17T13:15:33.898Z,1010.90
2022-12-17T13:16:33.955Z,1010.94
2022-12-17T13:17:33.915Z,1010.87
2022-12-17T13:18:34.128Z,1010.84
2022-12-17T13:19:33.898Z,1010.87
2022-12-17T13:20:33.864Z,1010.86
2022-12-17T13:21:33.837Z,1010.85
2022-12-17T13:22:33.827Z,1010.89
2022-12-17T13:23:33.818Z,1010.86
2022-12-17T13:24:33.802Z,1010.81
2022-12-17T13:25:33.843Z,1010.82
2022-12-17T13:26:33.779Z,1010.73
2022-12-17T13:27:33.775Z,1010.73
2022-12-17T13:28:33.759Z,1010.78
2022-12-17T13:29:33.817Z,1010.76
2022-12-17T13:30:33.782Z,1010.76
2022-12-17T13:31:33.846Z,1010.74
2022-12-17T13:32:33.715Z,1010.78
2022-12-17T13:33:33.705Z,1010.80
2022-12-17T13:34:33.699Z,1010.76
2022-12-17T13:35:33.705Z,1010.73
2022-12-17T13:36:33.680Z,1010.71
2022-12-17T13:37:33.683Z,1010.71
2022-12-17T13:38:33.829Z,1010.76
2022-12-17T13:39:33.643Z,1010.73
2022-12-17T13:40:33.640Z,1010.75
2022-12-17T13:41:33.634Z,1010.80
2022-12-17T13:42:33.617Z,1010.78
2022-12-17T13:43:33.623Z,1010.74
2022-12-17T13:44:33.613Z,1010.77
2022-12-17T13:45:33.615Z,1010.81
2022-12-17T13:46:33.590Z,1010.82
2022-12-17T13:47:33.560Z,1010.84
2022-12-17T13:48:33.555Z,1010.82
2022-12-17T13:49:33.585Z,1010.86
2022-12-17T13:50:35.047Z,1010.86
2022-12-17T13:51:33.513Z,1010.81
2022-12-17T13:52:33.555Z,1010.81
2022-12-17T13:53:33.499Z,1010.79
2022-12-17T13:54:33.490Z,1010.77
2022-12-17T13:55:33.492Z,1010.76
2022-12-17T13:56:33.477Z,1010.72
2022-12-17T13:57:33.467Z,1010.78
2022-12-17T13:58:33.469Z,1010.76
2022-12-17T13:59:33.444Z,1010.78
2022-12-17T14:00:33.437Z,1010.78
2022-12-17T14:01:33.584Z,1010.79
2022-12-17T14:02:33.561Z,1010.81
2022-12-17T14:04:03.786Z,1010.77
2022-12-17T14:04:34.391Z,1010.81
2022-12-17T14:05:33.397Z,1010.81
2022-12-17T14:06:33.383Z,1010.83
2022-12-17T14:07:33.352Z,1010.82
2022-12-17T14:08:33.694Z,1010.80
2022-12-17T14:09:33.340Z,1010.86
2022-12-17T14:10:33.343Z,1010.85
2022-12-17T14:11:33.314Z,1010.91
2022-12-17T14:12:33.311Z,1010.91
2022-12-17T14:13:33.296Z,1010.90
2022-12-17T14:14:33.288Z,1010.93
2022-12-17T14:15:33.309Z,1010.92
2022-12-17T14:16:33.335Z,1010.96
2022-12-17T14:17:33.268Z,1010.93
2022-12-17T14:18:33.276Z,1010.95
2022-12-17T14:19:33.223Z,1010.95
2022-12-17T14:20:33.242Z,1010.98
2022-12-17T14:21:33.230Z,1010.94
2022-12-17T14:22:33.200Z,1010.98
2022-12-17T14:23:33.205Z,1010.98
2022-12-17T14:24:33.191Z,1010.97
2022-12-17T14:25:33.213Z,1011.01
2022-12-17T14:26:33.175Z,1010.97
2022-12-17T14:27:33.152Z,1010.97
2022-12-17T14:28:33.144Z,1010.99
2022-12-17T14:29:33.124Z,1010.98
2022-12-17T14:30:33.132Z,1010.99
2022-12-17T14:31:33.171Z,1011.02
2022-12-17T14:32:33.101Z,1011.00
2022-12-17T14:33:33.082Z,1010.98
2022-12-17T14:34:33.111Z,1010.99
2022-12-17T14:35:33.066Z,1010.97
2022-12-17T14:36:33.061Z,1010.98
2022-12-17T14:37:33.051Z,1010.98
2022-12-17T14:38:40.714Z,1010.96
2022-12-17T14:39:34.060Z,1010.94
2022-12-17T14:40:33.029Z,1010.93
2022-12-17T14:41:33.011Z,1010.98
2022-12-17T14:42:32.997Z,1010.94
2022-12-17T14:43:33.015Z,1010.97
2022-12-17T14:44:33.017Z,1010.96
2022-12-17T14:45:32.998Z,1010.94
2022-12-17T14:46:32.975Z,1010.93
2022-12-17T14:47:32.960Z,1010.94
2022-12-17T14:48:32.938Z,1011.00
2022-12-17T14:49:32.940Z,1010.98
2022-12-17T14:50:32.923Z,1011.07
2022-12-17T14:51:32.894Z,1011.03
2022-12-17T14:52:32.922Z,1011.07
2022-12-17T14:53:32.906Z,1011.05
2022-12-17T14:54:32.878Z,1011.04
2022-12-17T14:55:32.869Z,1011.00
2022-12-17T14:56:32.846Z,1011.02
2022-12-17T14:57:32.831Z,1011.01
2022-12-17T14:58:32.846Z,1011.06
2022-12-17T14:59:32.812Z,1011.05
2022-12-17T15:00:32.808Z,1011.08
2022-12-17T15:01:32.938Z,1011.10
2022-12-17T15:02:33.007Z,1011.09
2022-12-17T15:03:32.911Z,1011.12
2022-12-17T15:04:32.763Z,1011.12
2022-12-17T15:05:32.747Z,1011.14
2022-12-17T15:06:32.769Z,1011.11
2022-12-17T15:07:32.741Z,1011.11
2022-12-17T15:08:32.722Z,1011.10
2022-12-17T15:09:32.729Z,1011.12
2022-12-17T15:10:32.702Z,1011.16
2022-12-17T15:11:32.686Z,1011.12
2022-12-17T15:12:32.679Z,1011.12
2022-12-17T15:13:32.717Z,1011.13
2022-12-17T15:14:32.680Z,1011.15
2022-12-17T15:15:32.672Z,1011.19
2022-12-17T15:16:32.681Z,1011.14
2022-12-17T15:17:32.631Z,1011.16
2022-12-17T15:18:32.618Z,1011.19
2022-12-17T15:19:32.603Z,1011.14
2022-12-17T15:20:32.612Z,1011.13
2022-12-17T15:21:32.612Z,1011.11
2022-12-17T15:22:32.596Z,1011.13
2022-12-17T15:23:32.577Z,1011.15
2022-12-17T15:24:32.579Z,1011.13
2022-12-17T15:25:32.548Z,1011.15
2022-12-17T15:26:32.541Z,1011.14
2022-12-17T15:27:32.516Z,1011.13
2022-12-17T15:28:32.528Z,1011.20
2022-12-17T15:29:32.497Z,1011.20
2022-12-17T15:30:32.550Z,1011.20
2022-12-17T15:31:35.684Z,1011.19
2022-12-17T15:32:32.485Z,1011.22
2022-12-17T15:33:32.468Z,1011.23
2022-12-17T15:34:32.452Z,1011.25
2022-12-17T15:35:32.459Z,1011.26
2022-12-17T15:36:32.485Z,1011.24
2022-12-17T15:37:32.416Z,1011.25
2022-12-17T15:38:32.427Z,1011.34
2022-12-17T15:39:32.402Z,1011.30
2022-12-17T15:40:32.405Z,1011.27
2022-12-17T15:41:32.377Z,1011.31
2022-12-17T15:42:32.390Z,1011.27
2022-12-17T15:43:32.372Z,1011.32
2022-12-17T15:44:32.346Z,1011.34
2022-12-17T15:45:32.334Z,1011.33
2022-12-17T15:46:32.391Z,1011.32
2022-12-17T15:47:32.319Z,1011.36
2022-12-17T15:48:32.353Z,1011.33
2022-12-17T15:49:32.294Z,1011.38
2022-12-17T15:50:32.296Z,1011.38
2022-12-17T15:51:32.274Z,1011.40
2022-12-17T15:52:32.259Z,1011.39
2022-12-17T15:53:32.336Z,1011.43
2022-12-17T15:54:32.256Z,1011.39
2022-12-17T15:55:32.256Z,1011.37
2022-12-17T15:56:32.237Z,1011.47
2022-12-17T15:57:32.217Z,1011.42
2022-12-17T15:58:32.214Z,1011.37
2022-12-17T15:59:32.204Z,1011.42
2022-12-17T16:00:32.195Z,1011.44
2022-12-17T16:01:32.319Z,1011.39
2022-12-17T16:02:32.421Z,1011.42
2022-12-17T16:03:32.185Z,1011.36
2022-12-17T16:04:32.183Z,1011.40
2022-12-17T16:05:32.184Z,1011.41
2022-12-17T16:06:32.116Z,1011.38
2022-12-17T16:07:32.108Z,1011.37
2022-12-17T16:08:32.096Z,1011.41
2022-12-17T16:09:32.087Z,1011.41
2022-12-17T16:10:32.105Z,1011.44
2022-12-17T16:11:32.089Z,1011.43
2022-12-17T16:12:32.074Z,1011.47
2022-12-17T16:13:32.093Z,1011.41
2022-12-17T16:14:32.060Z,1011.44
2022-12-17T16:15:32.074Z,1011.48
2022-12-17T16:16:32.091Z,1011.43
2022-12-17T16:17:32.002Z,1011.46
2022-12-17T16:18:32.005Z,1011.47
2022-12-17T16:19:32.001Z,1011.48
2022-12-17T16:20:31.985Z,1011.45
2022-12-17T16:21:31.982Z,1011.52
2022-12-17T16:22:31.981Z,1011.50
2022-12-17T16:23:31.948Z,1011.52
2022-12-17T16:24:31.952Z,1011.51
2022-12-17T16:25:31.924Z,1011.47
2022-12-17T16:26:31.928Z,1011.52
2022-12-17T16:27:31.909Z,1011.47
2022-12-17T16:28:31.894Z,1011.51
2022-12-17T16:29:31.925Z,1011.52
2022-12-17T16:30:31.875Z,1011.52
2022-12-17T16:31:31.919Z,1011.50
2022-12-17T16:32:36.338Z,1011.55
2022-12-17T16:33:35.712Z,1011.48
2022-12-17T16:34:31.854Z,1011.52
2022-12-17T16:35:31.857Z,1011.55
2022-12-17T16:36:31.808Z,1011.50
2022-12-17T16:37:31.795Z,1011.57
2022-12-17T16:38:31.787Z,1011.59
2022-12-17T16:39:31.772Z,1011.58
2022-12-17T16:40:31.792Z,1011.55
2022-12-17T16:41:31.782Z,1011.58
2022-12-17T16:42:31.760Z,1011.63
2022-12-17T16:43:31.734Z,1011.59
2022-12-17T16:44:31.749Z,1011.60
2022-12-17T16:45:31.707Z,1011.57
2022-12-17T16:46:31.777Z,1011.59
2022-12-17T16:47:31.723Z,1011.63
2022-12-17T16:48:31.681Z,1011.54
2022-12-17T16:49:31.681Z,1011.56
2022-12-17T16:50:31.705Z,1011.56
2022-12-17T16:51:31.648Z,1011.51
2022-12-17T16:52:31.657Z,1011.58
2022-12-17T16:53:31.664Z,1011.65
2022-12-17T16:54:31.612Z,1011.63
2022-12-17T16:55:31.617Z,1011.60
2022-12-17T16:56:35.139Z,1011.61
2022-12-17T16:57:32.614Z,1011.64
2022-12-17T16:58:31.591Z,1011.58
2022-12-17T16:59:31.571Z,1011.67
2022-12-17T17:00:31.573Z,1011.65
2022-12-17T17:01:31.764Z,1011.68
2022-12-17T17:02:31.811Z,1011.69
2022-12-17T17:03:31.623Z,1011.68
2022-12-17T17:04:31.514Z,1011.72
2022-12-17T17:05:31.529Z,1011.74
2022-12-17T17:06:33.742Z,1011.73
2022-12-17T17:07:31.505Z,1011.70
2022-12-17T17:08:31.474Z,1011.74
2022-12-17T17:09:31.470Z,1011.76
2022-12-17T17:10:31.478Z,1011.76
2022-12-17T17:11:31.466Z,1011.76
2022-12-17T17:12:31.467Z,1011.84
2022-12-17T17:13:31.441Z,1011.85
2022-12-17T17:14:31.473Z,1011.78
2022-12-17T17:15:31.412Z,1011.80
2022-12-17T17:16:31.464Z,1011.84
2022-12-17T17:17:55.495Z,1011.83
2022-12-17T17:18:32.366Z,1011.89
2022-12-17T17:19:31.365Z,1011.93
2022-12-17T17:20:31.367Z,1011.91
2022-12-17T17:21:31.349Z,1011.90
2022-12-17T17:22:31.379Z,1011.89
2022-12-17T17:23:31.330Z,1011.97
2022-12-17T17:24:31.319Z,1011.91
2022-12-17T17:25:54.150Z,1011.94
2022-12-17T17:26:32.283Z,1011.97
2022-12-17T17:27:31.282Z,1012.02
2022-12-17T17:28:31.273Z,1012.00
2022-12-17T17:29:31.277Z,1012.05
2022-12-17T17:30:31.257Z,1011.93
2022-12-17T17:32:09.371Z,1011.97
2022-12-17T17:32:32.297Z,1011.95
2022-12-17T17:33:31.219Z,1011.95
2022-12-17T17:34:31.230Z,1011.93
2022-12-17T17:35:31.201Z,1011.97